createdAt,value
2018-04-18T00:00:30.313Z,1021.83
2018-04-18T00:01:05.869Z,1021.81
2018-04-18T00:01:41.260Z,1021.83
2018-04-18T00:02:17.698Z,1021.83
2018-04-18T00:02:52.698Z,1021.85
2018-04-18T00:03:28.006Z,1021.87
2018-04-18T00:04:03.592Z,1021.86
2018-04-18T00:04:39.663Z,1021.88
2018-04-18T00:05:15.723Z,1021.89
2018-04-18T00:05:52.220Z,1021.91
2018-04-18T00:06:27.296Z,1021.87
2018-04-18T00:07:02.613Z,1021.88
2018-04-18T00:07:37.889Z,1021.88
2018-04-18T00:08:13.203Z,1021.85
2018-04-18T00:08:49.115Z,1021.85
2018-04-18T00:09:24.724Z,1021.90
2018-04-18T00:10:00.224Z,1021.89
2018-04-18T00:10:35.861Z,1021.90
2018-04-18T00:11:12.613Z,1021.90
2018-04-18T00:11:48.352Z,1021.91
2018-04-18T00:12:23.930Z,1021.91
2018-04-18T00:12:59.564Z,1021.92
2018-04-18T00:13:34.648Z,1021.93
2018-04-18T00:14:09.559Z,1021.93
2018-04-18T00:14:44.746Z,1021.89
2018-04-18T00:15:20.387Z,1021.91
2018-04-18T00:15:56.566Z,1021.90
2018-04-18T00:16:32.083Z,1021.93
2018-04-18T00:17:07.883Z,1021.93
2018-04-18T00:17:44.191Z,1021.98
2018-04-18T00:18:19.786Z,1021.98
2018-04-18T00:18:55.440Z,1021.98
2018-04-18T00:19:30.825Z,1022.00
2018-04-18T00:20:06.036Z,1022.01
2018-04-18T00:20:43.559Z,1021.96
2018-04-18T00:21:19.184Z,1022.03
2018-04-18T00:21:54.934Z,1022.02
2018-04-18T00:22:30.458Z,1022.02
2018-04-18T00:23:05.959Z,1021.99
2018-04-18T00:23:41.692Z,1022.02
2018-04-18T00:24:17.164Z,1022.01
2018-04-18T00:24:52.570Z,1022.02
2018-04-18T00:25:28.200Z,1022.00
2018-04-18T00:26:03.539Z,1022.03
2018-04-18T00:26:39.516Z,1022.02
2018-04-18T00:27:15.018Z,1021.98
2018-04-18T00:27:50.394Z,1022.01
2018-04-18T00:28:25.599Z,1022.01
2018-04-18T00:29:00.782Z,1021.98
2018-04-18T00:29:36.104Z,1022.02
2018-04-18T00:30:11.714Z,1022.03
2018-04-18T00:30:46.929Z,1022.06
2018-04-18T00:31:22.280Z,1022.02
2018-04-18T00:31:57.501Z,1022.06
2018-04-18T00:32:32.720Z,1022.08
2018-04-18T00:33:08.154Z,1022.09
2018-04-18T00:33:45.388Z,1022.10
2018-04-18T00:34:20.727Z,1022.11
2018-04-18T00:34:56.260Z,1022.12
2018-04-18T00:35:31.381Z,1022.12
2018-04-18T00:36:07.088Z,1022.11
2018-04-18T00:36:42.437Z,1022.15
2018-04-18T00:37:17.974Z,1022.08
2018-04-18T00:37:53.211Z,1022.12
2018-04-18T00:38:28.314Z,1022.16
2018-04-18T00:39:03.852Z,1022.16
2018-04-18T00:39:39.536Z,1022.14
2018-04-18T00:40:14.671Z,1022.17
2018-04-18T00:40:49.757Z,1022.15
2018-04-18T00:41:25.409Z,1022.16
2018-04-18T00:42:00.881Z,1022.18
2018-04-18T00:42:36.921Z,1022.18
2018-04-18T00:43:12.029Z,1022.15
2018-04-18T00:43:47.475Z,1022.17
2018-04-18T00:44:22.961Z,1022.20
2018-04-18T00:44:58.193Z,1022.20
2018-04-18T00:45:33.590Z,1022.19
2018-04-18T00:46:09.093Z,1022.20
2018-04-18T00:46:44.340Z,1022.21
2018-04-18T00:47:19.575Z,1022.22
2018-04-18T00:47:54.969Z,1022.21
2018-04-18T00:48:30.199Z,1022.18
2018-04-18T00:49:05.409Z,1022.19
2018-04-18T00:49:40.766Z,1022.22
2018-04-18T00:50:16.035Z,1022.22
2018-04-18T00:50:54.153Z,1022.20
2018-04-18T00:51:29.248Z,1022.20
2018-04-18T00:52:04.738Z,1022.22
2018-04-18T00:52:40.341Z,1022.24
2018-04-18T00:53:15.790Z,1022.22
2018-04-18T00:53:51.090Z,1022.22
2018-04-18T00:54:26.314Z,1022.23
2018-04-18T00:55:01.707Z,1022.22
2018-04-18T00:55:37.534Z,1022.25
2018-04-18T00:56:12.819Z,1022.22
2018-04-18T00:56:48.284Z,1022.24
2018-04-18T00:57:23.824Z,1022.26
2018-04-18T00:57:59.245Z,1022.24
2018-04-18T00:58:34.836Z,1022.24
2018-04-18T00:59:10.191Z,1022.26
2018-04-18T00:59:45.794Z,1022.27
2018-04-18T01:00:21.227Z,1022.25
2018-04-18T01:00:56.635Z,1022.28
2018-04-18T01:01:32.307Z,1022.24
2018-04-18T01:02:07.915Z,1022.25
2018-04-18T01:02:43.162Z,1022.25
2018-04-18T01:03:18.377Z,1022.26
2018-04-18T01:03:54.025Z,1022.27
2018-04-18T01:04:29.007Z,1022.27
2018-04-18T01:05:04.419Z,1022.26
2018-04-18T01:05:41.016Z,1022.27
2018-04-18T01:06:16.342Z,1022.28
2018-04-18T01:06:51.760Z,1022.27
2018-04-18T01:07:27.187Z,1022.29
2018-04-18T01:08:02.496Z,1022.29
2018-04-18T01:08:37.915Z,1022.26
2018-04-18T01:09:13.245Z,1022.26
2018-04-18T01:09:48.585Z,1022.26
2018-04-18T01:10:23.792Z,1022.26
2018-04-18T01:11:02.401Z,1022.31
2018-04-18T01:11:37.909Z,1022.27
2018-04-18T01:12:13.134Z,1022.31
2018-04-18T01:12:48.425Z,1022.31
2018-04-18T01:13:23.881Z,1022.30
2018-04-18T01:13:58.983Z,1022.33
2018-04-18T01:14:34.619Z,1022.31
2018-04-18T01:15:09.927Z,1022.33
2018-04-18T01:15:45.468Z,1022.31
2018-04-18T01:16:20.759Z,1022.34
2018-04-18T01:16:56.200Z,1022.30
2018-04-18T01:17:31.301Z,1022.32
2018-04-18T01:18:06.447Z,1022.31
2018-04-18T01:18:42.168Z,1022.32
2018-04-18T01:19:17.880Z,1022.33
2018-04-18T01:19:52.974Z,1022.28
2018-04-18T01:20:28.416Z,1022.28
2018-04-18T01:21:03.913Z,1022.26
2018-04-18T01:21:39.747Z,1022.31
2018-04-18T01:22:15.237Z,1022.28
2018-04-18T01:22:50.591Z,1022.26
2018-04-18T01:23:26.266Z,1022.28
2018-04-18T01:24:01.843Z,1022.27
2018-04-18T01:24:36.954Z,1022.25
2018-04-18T01:25:12.472Z,1022.26
2018-04-18T01:25:47.904Z,1022.26
2018-04-18T01:26:23.252Z,1022.28
2018-04-18T01:26:58.254Z,1022.23
2018-04-18T01:27:33.485Z,1022.24
2018-04-18T01:28:08.995Z,1022.23
2018-04-18T01:28:44.843Z,1022.22
2018-04-18T01:29:19.983Z,1022.28
2018-04-18T01:29:55.618Z,1022.25
2018-04-18T01:30:31.119Z,1022.26
2018-04-18T01:31:06.666Z,1022.24
2018-04-18T01:31:42.364Z,1022.29
2018-04-18T01:32:17.691Z,1022.29
2018-04-18T01:32:53.118Z,1022.27
2018-04-18T01:33:28.428Z,1022.27
2018-04-18T01:34:03.815Z,1022.27
2018-04-18T01:34:39.566Z,1022.27
2018-04-18T01:35:15.181Z,1022.29
2018-04-18T01:35:50.314Z,1022.28
2018-04-18T01:36:25.822Z,1022.29
2018-04-18T01:37:01.284Z,1022.30
2018-04-18T01:37:36.793Z,1022.33
2018-04-18T01:38:12.114Z,1022.30
2018-04-18T01:38:47.422Z,1022.30
2018-04-18T01:39:22.856Z,1022.29
2018-04-18T01:39:58.067Z,1022.35
2018-04-18T01:40:33.627Z,1022.32
2018-04-18T01:41:08.929Z,1022.28
2018-04-18T01:41:44.463Z,1022.32
2018-04-18T01:42:19.778Z,1022.30
2018-04-18T01:42:54.995Z,1022.31
2018-04-18T01:43:30.400Z,1022.32
2018-04-18T01:44:05.702Z,1022.31
2018-04-18T01:44:41.429Z,1022.33
2018-04-18T01:45:16.801Z,1022.34
2018-04-18T01:45:53.010Z,1022.35
2018-04-18T01:46:28.133Z,1022.33
2018-04-18T01:47:03.728Z,1022.34
2018-04-18T01:47:39.039Z,1022.38
2018-04-18T01:48:14.321Z,1022.39
2018-04-18T01:48:49.563Z,1022.38
2018-04-18T01:49:24.680Z,1022.38
2018-04-18T01:50:00.283Z,1022.36
2018-04-18T01:50:36.537Z,1022.38
2018-04-18T01:51:13.201Z,1022.39
2018-04-18T01:51:48.488Z,1022.39
2018-04-18T01:52:24.096Z,1022.40
2018-04-18T01:52:59.393Z,1022.40
2018-04-18T01:53:35.122Z,1022.40
2018-04-18T01:54:10.605Z,1022.42
2018-04-18T01:54:46.048Z,1022.42
2018-04-18T01:55:21.257Z,1022.42
2018-04-18T01:55:56.715Z,1022.42
2018-04-18T01:56:31.811Z,1022.42
2018-04-18T01:57:07.022Z,1022.43
2018-04-18T01:57:42.721Z,1022.44
2018-04-18T01:58:18.263Z,1022.47
2018-04-18T01:58:53.561Z,1022.44
2018-04-18T01:59:29.286Z,1022.46
2018-04-18T02:00:04.587Z,1022.45
2018-04-18T02:00:41.423Z,1022.47
2018-04-18T02:01:19.148Z,1022.55
2018-04-18T02:01:54.686Z,1022.52
2018-04-18T02:02:29.769Z,1022.50
2018-04-18T02:03:05.012Z,1022.50
2018-04-18T02:03:40.511Z,1022.49
2018-04-18T02:04:15.948Z,1022.55
2018-04-18T02:04:52.241Z,1022.50
2018-04-18T02:05:29.808Z,1022.50
2018-04-18T02:06:10.469Z,1022.48
2018-04-18T02:06:45.776Z,1022.52
2018-04-18T02:10:00.222Z,1022.53
2018-04-18T02:10:36.028Z,1022.56
2018-04-18T02:11:11.437Z,1022.53
2018-04-18T02:11:46.815Z,1022.55
2018-04-18T02:12:22.088Z,1022.53
2018-04-18T02:12:57.701Z,1022.54
2018-04-18T02:13:32.965Z,1022.54
2018-04-18T02:14:08.357Z,1022.56
2018-04-18T02:14:43.561Z,1022.58
2018-04-18T02:15:18.640Z,1022.55
2018-04-18T02:15:54.029Z,1022.58
2018-04-18T02:16:29.631Z,1022.59
2018-04-18T02:17:04.830Z,1022.61
2018-04-18T02:17:40.667Z,1022.59
2018-04-18T02:18:16.078Z,1022.57
2018-04-18T02:18:51.880Z,1022.60
2018-04-18T02:19:27.147Z,1022.59
2018-04-18T02:20:02.645Z,1022.62
2018-04-18T02:20:39.842Z,1022.65
2018-04-18T02:21:15.741Z,1022.62
2018-04-18T02:21:51.186Z,1022.65
2018-04-18T02:22:26.691Z,1022.62
2018-04-18T02:23:01.907Z,1022.64
2018-04-18T02:23:37.290Z,1022.66
2018-04-18T02:24:12.771Z,1022.65
2018-04-18T02:24:48.270Z,1022.67
2018-04-18T02:25:23.345Z,1022.64
2018-04-18T02:25:58.656Z,1022.72
2018-04-18T02:26:34.180Z,1022.72
2018-04-18T02:27:09.420Z,1022.69
2018-04-18T02:27:45.021Z,1022.69
2018-04-18T02:28:20.691Z,1022.68
2018-04-18T02:28:56.397Z,1022.72
2018-04-18T02:29:32.022Z,1022.74
2018-04-18T02:30:07.362Z,1022.73
2018-04-18T02:30:42.751Z,1022.71
2018-04-18T02:31:18.162Z,1022.72
2018-04-18T02:31:53.515Z,1022.72
2018-04-18T02:32:28.812Z,1022.71
2018-04-18T02:33:04.109Z,1022.73
2018-04-18T02:33:39.602Z,1022.75
2018-04-18T02:34:14.796Z,1022.73
2018-04-18T02:34:50.107Z,1022.73
2018-04-18T02:35:25.681Z,1022.73
2018-04-18T02:36:01.199Z,1022.73
2018-04-18T02:36:36.785Z,1022.73
2018-04-18T02:37:12.075Z,1022.72
2018-04-18T02:37:47.523Z,1022.75
2018-04-18T02:38:22.808Z,1022.71
2018-04-18T02:38:58.696Z,1022.70
2018-04-18T02:39:35.495Z,1022.73
2018-04-18T02:40:11.131Z,1022.74
2018-04-18T02:40:47.049Z,1022.75
2018-04-18T02:41:23.440Z,1022.71
2018-04-18T02:41:58.841Z,1022.75
2018-04-18T02:42:34.111Z,1022.76
2018-04-18T02:43:09.535Z,1022.75
2018-04-18T02:43:47.325Z,1022.75
2018-04-18T02:44:22.735Z,1022.74
2018-04-18T02:44:58.128Z,1022.78
2018-04-18T02:45:33.505Z,1022.79
2018-04-18T02:46:08.909Z,1022.80
2018-04-18T02:46:44.331Z,1022.81
2018-04-18T02:47:19.600Z,1022.82
2018-04-18T02:47:54.987Z,1022.80
2018-04-18T02:48:30.409Z,1022.82
2018-04-18T02:49:06.013Z,1022.84
2018-04-18T02:49:41.092Z,1022.84
2018-04-18T02:50:16.699Z,1022.86
2018-04-18T02:50:52.114Z,1022.83
2018-04-18T02:51:27.597Z,1022.84
2018-04-18T02:52:03.115Z,1022.85
2018-04-18T02:52:39.102Z,1022.87
2018-04-18T02:53:14.300Z,1022.85
2018-04-18T02:53:49.537Z,1022.85
2018-04-18T02:54:25.002Z,1022.84
2018-04-18T02:55:00.510Z,1022.87
2018-04-18T02:55:37.014Z,1022.86
2018-04-18T02:56:12.337Z,1022.84
2018-04-18T02:56:48.755Z,1022.85
2018-04-18T02:57:24.025Z,1022.85
2018-04-18T02:57:59.153Z,1022.88
2018-04-18T02:58:34.852Z,1022.90
2018-04-18T02:59:10.408Z,1022.87
2018-04-18T02:59:45.824Z,1022.88
2018-04-18T03:00:21.418Z,1022.87
2018-04-18T03:00:56.731Z,1022.91
2018-04-18T03:01:32.103Z,1022.89
2018-04-18T03:02:07.546Z,1022.92
2018-04-18T03:02:42.815Z,1022.93
2018-04-18T03:03:18.730Z,1022.97
2018-04-18T03:03:53.752Z,1022.95
2018-04-18T03:04:28.982Z,1023.02
2018-04-18T03:05:04.303Z,1022.96
2018-04-18T03:05:39.589Z,1023.00
2018-04-18T03:06:15.099Z,1022.96
2018-04-18T03:06:51.914Z,1023.00
2018-04-18T03:07:27.137Z,1023.02
2018-04-18T03:08:02.550Z,1023.07
2018-04-18T03:08:37.750Z,1023.04
2018-04-18T03:09:13.156Z,1023.05
2018-04-18T03:09:48.609Z,1023.05
2018-04-18T03:10:23.924Z,1023.09
2018-04-18T03:11:00.668Z,1023.08
2018-04-18T03:11:36.152Z,1023.09
2018-04-18T03:12:11.756Z,1023.12
2018-04-18T03:12:47.033Z,1023.10
2018-04-18T03:13:22.347Z,1023.12
2018-04-18T03:13:57.719Z,1023.13
2018-04-18T03:14:33.330Z,1023.14
2018-04-18T03:15:08.685Z,1023.14
2018-04-18T03:15:44.573Z,1023.16
2018-04-18T03:16:19.865Z,1023.16
2018-04-18T03:16:55.845Z,1023.16
2018-04-18T03:17:31.134Z,1023.16
2018-04-18T03:18:06.296Z,1023.16
2018-04-18T03:18:41.576Z,1023.14
2018-04-18T03:19:16.976Z,1023.18
2018-04-18T03:19:52.278Z,1023.19
2018-04-18T03:20:27.518Z,1023.15
2018-04-18T03:21:02.595Z,1023.17
2018-04-18T03:21:37.997Z,1023.17
2018-04-18T03:22:13.419Z,1023.18
2018-04-18T03:22:48.710Z,1023.18
2018-04-18T03:23:24.113Z,1023.18
2018-04-18T03:23:59.603Z,1023.20
2018-04-18T03:24:34.614Z,1023.23
2018-04-18T03:25:13.355Z,1023.23
2018-04-18T03:25:48.764Z,1023.20
2018-04-18T03:26:24.165Z,1023.23
2018-04-18T03:26:59.466Z,1023.18
2018-04-18T03:27:34.684Z,1023.22
2018-04-18T03:28:09.790Z,1023.21
2018-04-18T03:28:47.081Z,1023.22
2018-04-18T03:29:22.283Z,1023.24
2018-04-18T03:29:57.669Z,1023.27
2018-04-18T03:30:33.087Z,1023.22
2018-04-18T03:31:10.035Z,1023.27
2018-04-18T03:31:45.416Z,1023.21
2018-04-18T03:32:20.727Z,1023.23
2018-04-18T03:32:55.913Z,1023.24
2018-04-18T03:33:31.223Z,1023.25
2018-04-18T03:34:09.040Z,1023.22
2018-04-18T03:34:44.135Z,1023.23
2018-04-18T03:35:19.461Z,1023.23
2018-04-18T03:35:58.005Z,1023.21
2018-04-18T03:36:35.503Z,1023.26
2018-04-18T03:37:10.708Z,1023.27
2018-04-18T03:37:46.167Z,1023.26
2018-04-18T03:38:24.001Z,1023.26
2018-04-18T03:38:59.264Z,1023.27
2018-04-18T03:39:35.289Z,1023.30
2018-04-18T03:40:10.725Z,1023.30
2018-04-18T03:40:47.044Z,1023.32
2018-04-18T03:41:22.234Z,1023.31
2018-04-18T03:41:57.460Z,1023.34
2018-04-18T03:42:32.984Z,1023.32
2018-04-18T03:43:08.400Z,1023.32
2018-04-18T03:43:43.810Z,1023.33
2018-04-18T03:44:19.099Z,1023.34
2018-04-18T03:44:54.368Z,1023.38
2018-04-18T03:45:31.677Z,1023.36
2018-04-18T03:46:07.174Z,1023.35
2018-04-18T03:46:42.877Z,1023.37
2018-04-18T03:47:19.000Z,1023.35
2018-04-18T03:47:55.973Z,1023.36
2018-04-18T03:48:31.386Z,1023.37
2018-04-18T03:49:06.788Z,1023.35
2018-04-18T03:49:42.168Z,1023.36
2018-04-18T03:50:17.674Z,1023.36
2018-04-18T03:50:53.148Z,1023.40
2018-04-18T03:51:28.761Z,1023.39
2018-04-18T03:52:04.573Z,1023.40
2018-04-18T03:52:39.975Z,1023.38
2018-04-18T03:53:16.866Z,1023.43
2018-04-18T03:53:52.188Z,1023.43
2018-04-18T03:54:27.404Z,1023.40
2018-04-18T03:55:02.806Z,1023.46
2018-04-18T03:55:38.016Z,1023.45
2018-04-18T03:56:16.534Z,1023.44
2018-04-18T03:56:51.725Z,1023.47
2018-04-18T03:57:27.070Z,1023.48
2018-04-18T03:58:02.553Z,1023.46
2018-04-18T03:58:40.868Z,1023.47
2018-04-18T03:59:16.355Z,1023.48
2018-04-18T03:59:51.851Z,1023.49
2018-04-18T04:00:27.199Z,1023.50
2018-04-18T04:01:02.366Z,1023.49
2018-04-18T04:01:37.489Z,1023.49
2018-04-18T04:02:13.900Z,1023.50
2018-04-18T04:02:51.695Z,1023.52
2018-04-18T04:03:27.549Z,1023.51
2018-04-18T04:04:02.735Z,1023.50
2018-04-18T04:04:38.741Z,1023.51
2018-04-18T04:05:14.141Z,1023.53
2018-04-18T04:05:49.546Z,1023.50
2018-04-18T04:06:24.856Z,1023.52
2018-04-18T04:07:00.032Z,1023.51
2018-04-18T04:07:35.736Z,1023.51
2018-04-18T04:08:11.124Z,1023.54
2018-04-18T04:08:46.354Z,1023.51
2018-04-18T04:09:21.623Z,1023.54
2018-04-18T04:09:56.926Z,1023.53
2018-04-18T04:10:32.360Z,1023.50
2018-04-18T04:11:10.026Z,1023.53
2018-04-18T04:11:45.243Z,1023.54
2018-04-18T04:12:20.922Z,1023.56
2018-04-18T04:12:58.326Z,1023.59
2018-04-18T04:13:33.751Z,1023.58
2018-04-18T04:14:09.069Z,1023.55
2018-04-18T04:14:44.275Z,1023.56
2018-04-18T04:15:19.669Z,1023.57
2018-04-18T04:15:55.159Z,1023.58
2018-04-18T04:16:30.525Z,1023.55
2018-04-18T04:17:05.484Z,1023.59
2018-04-18T04:17:41.308Z,1023.61
2018-04-18T04:18:16.692Z,1023.60
2018-04-18T04:18:51.893Z,1023.59
2018-04-18T04:19:27.342Z,1023.58
2018-04-18T04:20:02.619Z,1023.60
2018-04-18T04:20:38.839Z,1023.58
2018-04-18T04:21:14.117Z,1023.58
2018-04-18T04:21:50.007Z,1023.59
2018-04-18T04:22:25.428Z,1023.60
2018-04-18T04:23:01.007Z,1023.61
2018-04-18T04:23:36.348Z,1023.61
2018-04-18T04:24:11.616Z,1023.60
2018-04-18T04:24:47.000Z,1023.59
2018-04-18T04:25:22.383Z,1023.63
2018-04-18T04:25:57.678Z,1023.63
2018-04-18T04:26:33.005Z,1023.61
2018-04-18T04:27:08.395Z,1023.64
2018-04-18T04:27:44.403Z,1023.65
2018-04-18T04:28:19.869Z,1023.68
2018-04-18T04:28:55.353Z,1023.65
2018-04-18T04:29:30.756Z,1023.65
2018-04-18T04:30:06.198Z,1023.66
2018-04-18T04:30:42.305Z,1023.69
2018-04-18T04:31:17.704Z,1023.66
2018-04-18T04:31:52.804Z,1023.70
2018-04-18T04:32:28.296Z,1023.68
2018-04-18T04:33:04.877Z,1023.68
2018-04-18T04:33:40.095Z,1023.67
2018-04-18T04:34:15.680Z,1023.66
2018-04-18T04:34:50.677Z,1023.68
2018-04-18T04:35:26.111Z,1023.68
2018-04-18T04:36:01.491Z,1023.68
2018-04-18T04:36:36.799Z,1023.68
2018-04-18T04:37:12.193Z,1023.68
2018-04-18T04:37:47.619Z,1023.71
2018-04-18T04:38:23.015Z,1023.70
2018-04-18T04:38:58.616Z,1023.71
2018-04-18T04:39:33.861Z,1023.72
2018-04-18T04:40:08.930Z,1023.73
2018-04-18T04:40:44.363Z,1023.74
2018-04-18T04:41:21.743Z,1023.72
2018-04-18T04:41:57.256Z,1023.74
2018-04-18T04:42:32.686Z,1023.77
2018-04-18T04:43:08.058Z,1023.78
2018-04-18T04:43:43.473Z,1023.77
2018-04-18T04:44:18.875Z,1023.75
2018-04-18T04:44:54.217Z,1023.75
2018-04-18T04:45:29.370Z,1023.79
2018-04-18T04:46:04.771Z,1023.78
2018-04-18T04:46:40.173Z,1023.77
2018-04-18T04:47:15.454Z,1023.82
2018-04-18T04:47:50.557Z,1023.80
2018-04-18T04:48:25.948Z,1023.80
2018-04-18T04:49:01.230Z,1023.80
2018-04-18T04:49:37.540Z,1023.81
2018-04-18T04:50:12.729Z,1023.82
2018-04-18T04:50:48.133Z,1023.82
2018-04-18T04:51:23.667Z,1023.83
2018-04-18T04:51:59.094Z,1023.85
2018-04-18T04:52:34.806Z,1023.83
2018-04-18T04:53:10.086Z,1023.81
2018-04-18T04:53:46.833Z,1023.84
2018-04-18T04:54:22.224Z,1023.84
2018-04-18T04:54:57.716Z,1023.84
2018-04-18T04:55:33.022Z,1023.85
2018-04-18T04:56:08.406Z,1023.84
2018-04-18T04:56:43.638Z,1023.86
2018-04-18T04:57:19.044Z,1023.89
2018-04-18T04:57:54.332Z,1023.91
2018-04-18T04:58:29.823Z,1023.88
2018-04-18T04:59:05.029Z,1023.89
2018-04-18T04:59:40.235Z,1023.90
2018-04-18T05:00:15.533Z,1023.93
2018-04-18T05:00:51.159Z,1023.91
2018-04-18T05:01:26.830Z,1023.91
2018-04-18T05:02:02.381Z,1023.93
2018-04-18T05:02:37.527Z,1023.96
2018-04-18T05:03:12.986Z,1023.96
2018-04-18T05:03:48.193Z,1023.94
2018-04-18T05:04:23.373Z,1023.98
2018-04-18T05:04:58.590Z,1023.95
2018-04-18T05:05:33.797Z,1023.99
2018-04-18T05:06:09.209Z,1023.95
2018-04-18T05:06:45.642Z,1023.98
2018-04-18T05:07:21.089Z,1023.99
2018-04-18T05:07:56.690Z,1023.98
2018-04-18T05:08:32.389Z,1023.99
2018-04-18T05:09:07.820Z,1023.98
2018-04-18T05:09:43.184Z,1024.04
2018-04-18T05:10:18.547Z,1024.03
2018-04-18T05:10:56.327Z,1024.01
2018-04-18T05:11:31.645Z,1024.04
2018-04-18T05:12:06.965Z,1024.00
2018-04-18T05:12:42.600Z,1024.02
2018-04-18T05:13:18.084Z,1024.02
2018-04-18T05:13:53.507Z,1024.04
2018-04-18T05:14:28.599Z,1024.05
2018-04-18T05:15:04.447Z,1024.07
2018-04-18T05:15:39.761Z,1024.06
2018-04-18T05:16:15.052Z,1024.07
2018-04-18T05:16:50.365Z,1024.10
2018-04-18T05:17:25.560Z,1024.11
2018-04-18T05:18:01.105Z,1024.12
2018-04-18T05:18:36.891Z,1024.13
2018-04-18T05:19:12.261Z,1024.13
2018-04-18T05:19:47.680Z,1024.15
2018-04-18T05:20:23.068Z,1024.15
2018-04-18T05:21:00.682Z,1024.17
2018-04-18T05:21:36.200Z,1024.19
2018-04-18T05:22:11.384Z,1024.17
2018-04-18T05:22:46.724Z,1024.17
2018-04-18T05:23:21.739Z,1024.17
2018-04-18T05:23:57.938Z,1024.22
2018-04-18T05:24:33.024Z,1024.19
2018-04-18T05:25:10.129Z,1024.25
2018-04-18T05:25:45.640Z,1024.20
2018-04-18T05:26:22.838Z,1024.24
2018-04-18T05:26:58.173Z,1024.19
2018-04-18T05:27:33.803Z,1024.24
2018-04-18T05:28:09.159Z,1024.20
2018-04-18T05:28:44.623Z,1024.25
2018-04-18T05:29:19.900Z,1024.25
2018-04-18T05:29:55.712Z,1024.27
2018-04-18T05:30:31.009Z,1024.30
2018-04-18T05:31:06.329Z,1024.29
2018-04-18T05:31:41.771Z,1024.28
2018-04-18T05:32:20.371Z,1024.29
2018-04-18T05:32:56.293Z,1024.30
2018-04-18T05:33:32.103Z,1024.27
2018-04-18T05:34:07.346Z,1024.31
2018-04-18T05:34:43.169Z,1024.31
2018-04-18T05:35:18.543Z,1024.32
2018-04-18T05:35:55.311Z,1024.31
2018-04-18T05:36:30.731Z,1024.35
2018-04-18T05:37:06.160Z,1024.35
2018-04-18T05:37:41.586Z,1024.34
2018-04-18T05:38:17.384Z,1024.37
2018-04-18T05:38:52.811Z,1024.37
2018-04-18T05:39:28.747Z,1024.41
2018-04-18T05:40:04.361Z,1024.37
2018-04-18T05:40:41.166Z,1024.44
2018-04-18T05:41:18.041Z,1024.40
2018-04-18T05:41:53.360Z,1024.42
2018-04-18T05:42:31.626Z,1024.41
2018-04-18T05:43:06.846Z,1024.44
2018-04-18T05:43:43.017Z,1024.45
2018-04-18T05:44:18.234Z,1024.46
2018-04-18T05:44:53.774Z,1024.46
2018-04-18T05:45:30.452Z,1024.46
2018-04-18T05:46:07.360Z,1024.48
2018-04-18T05:46:44.166Z,1024.51
2018-04-18T05:47:19.597Z,1024.51
2018-04-18T05:47:54.831Z,1024.54
2018-04-18T05:48:30.031Z,1024.52
2018-04-18T05:49:05.856Z,1024.54
2018-04-18T05:49:41.051Z,1024.55
2018-04-18T05:50:16.884Z,1024.58
2018-04-18T05:50:52.275Z,1024.59
2018-04-18T05:51:27.882Z,1024.57
2018-04-18T05:52:03.414Z,1024.60
2018-04-18T05:52:38.600Z,1024.60
2018-04-18T05:53:13.816Z,1024.65
2018-04-18T05:53:49.147Z,1024.56
2018-04-18T05:54:24.237Z,1024.62
2018-04-18T05:54:59.851Z,1024.61
2018-04-18T05:55:34.960Z,1024.64
2018-04-18T05:56:10.194Z,1024.62
2018-04-18T05:56:45.729Z,1024.62
2018-04-18T05:57:21.013Z,1024.62
2018-04-18T05:57:56.426Z,1024.65
2018-04-18T05:58:31.830Z,1024.65
2018-04-18T05:59:07.357Z,1024.66
2018-04-18T05:59:43.569Z,1024.67
2018-04-18T06:00:19.075Z,1024.67
2018-04-18T06:00:55.115Z,1024.65
2018-04-18T06:01:30.302Z,1024.69
2018-04-18T06:02:05.703Z,1024.66
2018-04-18T06:02:41.320Z,1024.66
2018-04-18T06:03:17.029Z,1024.70
2018-04-18T06:03:52.538Z,1024.68
2018-04-18T06:04:27.964Z,1024.71
2018-04-18T06:05:06.363Z,1024.72
2018-04-18T06:05:41.555Z,1024.76
2018-04-18T06:06:18.466Z,1024.76
2018-04-18T06:06:53.751Z,1024.71
2018-04-18T06:07:29.251Z,1024.76
2018-04-18T06:08:07.590Z,1024.74
2018-04-18T06:08:42.590Z,1024.74
2018-04-18T06:09:19.498Z,1024.77
2018-04-18T06:09:54.895Z,1024.80
2018-04-18T06:10:32.482Z,1024.78
2018-04-18T06:11:07.825Z,1024.77
2018-04-18T06:11:44.057Z,1024.81
2018-04-18T06:12:19.370Z,1024.81
2018-04-18T06:13:00.279Z,1024.80
2018-04-18T06:13:37.363Z,1024.83
2018-04-18T06:14:16.076Z,1024.81
2018-04-18T06:14:54.131Z,1024.83
2018-04-18T06:15:32.718Z,1024.82
2018-04-18T06:16:07.931Z,1024.86
2018-04-18T06:16:43.047Z,1024.83
2018-04-18T06:17:22.067Z,1024.89
2018-04-18T06:17:57.386Z,1024.87
2018-04-18T06:18:36.377Z,1024.84
2018-04-18T06:19:11.620Z,1024.85
2018-04-18T06:19:46.928Z,1024.85
2018-04-18T06:20:22.335Z,1024.86
2018-04-18T06:20:59.775Z,1024.83
2018-04-18T06:21:35.242Z,1024.86
2018-04-18T06:22:12.246Z,1024.88
2018-04-18T06:22:47.798Z,1024.91
2018-04-18T06:23:22.988Z,1024.88
2018-04-18T06:23:58.444Z,1024.93
2018-04-18T06:24:33.778Z,1024.91
2018-04-18T06:25:09.093Z,1024.89
2018-04-18T06:25:47.620Z,1024.90
2018-04-18T06:26:25.697Z,1024.89
2018-04-18T06:27:04.751Z,1024.93
2018-04-18T06:27:42.247Z,1024.91
2018-04-18T06:28:17.612Z,1024.94
2018-04-18T06:28:52.938Z,1024.96
2018-04-18T06:29:28.444Z,1024.95
2018-04-18T06:30:03.858Z,1024.94
2018-04-18T06:30:42.260Z,1024.94
2018-04-18T06:31:20.061Z,1024.95
2018-04-18T06:31:55.775Z,1024.96
2018-04-18T06:32:32.962Z,1024.98
2018-04-18T06:33:08.173Z,1024.99
2018-04-18T06:33:45.993Z,1024.97
2018-04-18T06:34:21.327Z,1025.00
2018-04-18T06:34:56.848Z,1025.04
2018-04-18T06:35:32.370Z,1024.96
2018-04-18T06:36:11.299Z,1025.00
2018-04-18T06:36:46.471Z,1025.01
2018-04-18T06:37:21.893Z,1025.00
2018-04-18T06:37:57.396Z,1025.05
2018-04-18T06:38:32.843Z,1025.06
2018-04-18T06:39:08.208Z,1025.08
2018-04-18T06:39:46.542Z,1025.09
2018-04-18T06:40:22.598Z,1025.09
2018-04-18T06:40:58.091Z,1025.09
2018-04-18T06:41:35.191Z,1025.11
2018-04-18T06:42:10.907Z,1025.16
2018-04-18T06:42:46.505Z,1025.13
2018-04-18T06:43:22.127Z,1025.11
2018-04-18T06:43:57.222Z,1025.17
2018-04-18T06:44:32.873Z,1025.18
2018-04-18T06:45:08.329Z,1025.15
2018-04-18T06:45:44.049Z,1025.16
2018-04-18T06:46:20.900Z,1025.22
2018-04-18T06:46:56.212Z,1025.17
2018-04-18T06:47:31.492Z,1025.19
2018-04-18T06:48:06.915Z,1025.20
2018-04-18T06:48:42.313Z,1025.15
2018-04-18T06:49:17.617Z,1025.16
2018-04-18T06:49:53.435Z,1025.18
2018-04-18T06:50:28.754Z,1025.18
2018-04-18T06:51:07.271Z,1025.17
2018-04-18T06:51:42.477Z,1025.19
2018-04-18T06:52:17.796Z,1025.20
2018-04-18T06:52:53.700Z,1025.20
2018-04-18T06:53:28.836Z,1025.17
2018-04-18T06:54:04.276Z,1025.19
2018-04-18T06:54:39.568Z,1025.22
2018-04-18T06:55:15.003Z,1025.22
2018-04-18T06:55:50.207Z,1025.25
2018-04-18T06:56:28.514Z,1025.27
2018-04-18T06:57:04.755Z,1025.27
2018-04-18T06:57:39.893Z,1025.31
2018-04-18T06:58:15.222Z,1025.33
2018-04-18T06:58:50.823Z,1025.33
2018-04-18T06:59:26.328Z,1025.34
2018-04-18T07:00:01.823Z,1025.33
2018-04-18T07:02:38.302Z,1025.38
2018-04-18T07:03:13.869Z,1025.40
2018-04-18T07:03:51.988Z,1025.40
2018-04-18T07:04:27.085Z,1025.38
2018-04-18T07:05:05.504Z,1025.41
2018-04-18T07:05:41.633Z,1025.43
2018-04-18T07:06:17.317Z,1025.45
2018-04-18T07:06:52.621Z,1025.44
2018-04-18T07:07:27.964Z,1025.47
2018-04-18T07:08:03.735Z,1025.46
2018-04-18T07:08:40.549Z,1025.45
2018-04-18T07:09:15.967Z,1025.48
2018-04-18T07:09:51.193Z,1025.47
2018-04-18T07:10:26.609Z,1025.48
2018-04-18T07:11:05.095Z,1025.50
2018-04-18T07:11:40.572Z,1025.52
2018-04-18T07:12:18.091Z,1025.56
2018-04-18T07:12:53.453Z,1025.58
2018-04-18T07:13:30.285Z,1025.58
2018-04-18T07:14:05.779Z,1025.53
2018-04-18T07:14:40.882Z,1025.50
2018-04-18T07:15:16.190Z,1025.53
2018-04-18T07:15:53.977Z,1025.54
2018-04-18T07:16:30.402Z,1025.54